Terminal Aerodrome Forecast
Issued by NWS

Home | Current Version | Previous Version | Text Only | Print | Product List | Glossary Off
Versions: 1 2 3 4 5 6 7 8 9 10 11 12 13 14 15 16 17 18 19 20 21 22 23 24 25 26 27 28 29 30 31

000
FTUS43 KLOT 290907 AAA
TAFORD
TAF AMD
KORD 290907Z 2909/3012 02005KT 6SM BR SCT004 BKN015
      TEMPO 2909/2912 BKN004
     FM291300 05006KT 6SM BR SCT008 BKN015
     FM291500 06009KT P6SM VCSH BKN025
      TEMPO 2917/2920 5SM -SHRA
     FM292200 06010KT P6SM BKN040
     FM300200 05007KT P6SM BKN040=

USA.gov is the U.S. government's official web portal to all federal, state and local government web resources and services.